sensor_id;sensor_type;location;lat;lon;timestamp;pressure;altitude;pressure_sealevel;temperature
7389;BMP180;3735;50.136;11.062;2022-07-10T00:00:40;98760.00;;;16.20
7389;BMP180;3735;50.136;11.062;2022-07-10T00:03:06;98753.00;;;16.30
7389;BMP180;3735;50.136;11.062;2022-07-10T00:05:33;98751.00;;;16.30
7389;BMP180;3735;50.136;11.062;2022-07-10T00:08:02;98753.00;;;16.20
7389;BMP180;3735;50.136;11.062;2022-07-10T00:10:29;98754.00;;;16.20
7389;BMP180;3735;50.136;11.062;2022-07-10T00:12:55;98764.00;;;16.20
7389;BMP180;3735;50.136;11.062;2022-07-10T00:15:22;98759.00;;;16.20
7389;BMP180;3735;50.136;11.062;2022-07-10T00:17:48;98768.00;;;16.10
7389;BMP180;3735;50.136;11.062;2022-07-10T00:20:15;98770.00;;;16.20
7389;BMP180;3735;50.136;11.062;2022-07-10T00:22:42;98765.00;;;16.20
7389;BMP180;3735;50.136;11.062;2022-07-10T00:25:11;98752.00;;;16.10
7389;BMP180;3735;50.136;11.062;2022-07-10T00:27:37;98765.00;;;16.00
7389;BMP180;3735;50.136;11.062;2022-07-10T00:30:04;98758.00;;;15.90
7389;BMP180;3735;50.136;11.062;2022-07-10T00:32:30;98766.00;;;15.90
7389;BMP180;3735;50.136;11.062;2022-07-10T00:34:55;98775.00;;;15.80
7389;BMP180;3735;50.136;11.062;2022-07-10T00:37:21;98770.00;;;15.80
7389;BMP180;3735;50.136;11.062;2022-07-10T00:39:48;98773.00;;;15.80
7389;BMP180;3735;50.136;11.062;2022-07-10T00:42:15;98776.00;;;15.70
7389;BMP180;3735;50.136;11.062;2022-07-10T00:44:43;98775.00;;;15.80
7389;BMP180;3735;50.136;11.062;2022-07-10T00:47:10;98768.00;;;15.70
7389;BMP180;3735;50.136;11.062;2022-07-10T00:49:39;98766.00;;;15.70
7389;BMP180;3735;50.136;11.062;2022-07-10T00:52:13;98771.00;;;15.70
7389;BMP180;3735;50.136;11.062;2022-07-10T00:54:44;98766.00;;;15.60
7389;BMP180;3735;50.136;11.062;2022-07-10T00:57:12;98755.00;;;15.50
7389;BMP180;3735;50.136;11.062;2022-07-10T00:59:38;98754.00;;;15.40
7389;BMP180;3735;50.136;11.062;2022-07-10T01:02:05;98754.00;;;15.30
7389;BMP180;3735;50.136;11.062;2022-07-10T01:04:32;98762.00;;;15.10
7389;BMP180;3735;50.136;11.062;2022-07-10T01:06:59;98760.00;;;14.90
7389;BMP180;3735;50.136;11.062;2022-07-10T01:09:25;98765.00;;;14.80
7389;BMP180;3735;50.136;11.062;2022-07-10T01:11:52;98763.00;;;14.60
7389;BMP180;3735;50.136;11.062;2022-07-10T01:14:18;98765.00;;;14.50
7389;BMP180;3735;50.136;11.062;2022-07-10T01:16:43;98761.00;;;14.30
7389;BMP180;3735;50.136;11.062;2022-07-10T01:19:09;98762.00;;;14.00
7389;BMP180;3735;50.136;11.062;2022-07-10T01:21:37;98763.00;;;13.90
7389;BMP180;3735;50.136;11.062;2022-07-10T01:24:08;98760.00;;;13.70
7389;BMP180;3735;50.136;11.062;2022-07-10T01:26:36;98756.00;;;13.50
7389;BMP180;3735;50.136;11.062;2022-07-10T01:29:05;98762.00;;;13.40
7389;BMP180;3735;50.136;11.062;2022-07-10T01:31:32;98756.00;;;13.30
7389;BMP180;3735;50.136;11.062;2022-07-10T01:34:00;98750.00;;;13.20
7389;BMP180;3735;50.136;11.062;2022-07-10T01:36:29;98757.00;;;13.10
7389;BMP180;3735;50.136;11.062;2022-07-10T01:38:59;98759.00;;;13.00
7389;BMP180;3735;50.136;11.062;2022-07-10T01:41:26;98754.00;;;12.90
7389;BMP180;3735;50.136;11.062;2022-07-10T01:43:53;98749.00;;;12.80
7389;BMP180;3735;50.136;11.062;2022-07-10T01:46:19;98749.00;;;12.60
7389;BMP180;3735;50.136;11.062;2022-07-10T01:48:45;98747.00;;;12.50
7389;BMP180;3735;50.136;11.062;2022-07-10T01:51:12;98751.00;;;12.40
7389;BMP180;3735;50.136;11.062;2022-07-10T01:53:39;98748.00;;;12.30
7389;BMP180;3735;50.136;11.062;2022-07-10T01:56:08;98754.00;;;12.30
7389;BMP180;3735;50.136;11.062;2022-07-10T01:58:35;98759.00;;;12.30
7389;BMP180;3735;50.136;11.062;2022-07-10T02:01:03;98759.00;;;12.30
7389;BMP180;3735;50.136;11.062;2022-07-10T02:03:29;98762.00;;;12.20
7389;BMP180;3735;50.136;11.062;2022-07-10T02:06:13;98757.00;;;12.20
7389;BMP180;3735;50.136;11.062;2022-07-10T02:08:39;98761.00;;;12.20
7389;BMP180;3735;50.136;11.062;2022-07-10T02:11:05;98764.00;;;12.20
7389;BMP180;3735;50.136;11.062;2022-07-10T02:13:31;98768.00;;;12.10
7389;BMP180;3735;50.136;11.062;2022-07-10T02:15:58;98769.00;;;12.00
7389;BMP180;3735;50.136;11.062;2022-07-10T02:18:24;98769.00;;;12.10
7389;BMP180;3735;50.136;11.062;2022-07-10T02:20:51;98762.00;;;12.20
7389;BMP180;3735;50.136;11.062;2022-07-10T02:23:18;98763.00;;;12.20
7389;BMP180;3735;50.136;11.062;2022-07-10T02:25:43;98765.00;;;12.20
7389;BMP180;3735;50.136;11.062;2022-07-10T02:28:10;98764.00;;;12.10
7389;BMP180;3735;50.136;11.062;2022-07-10T02:30:36;98753.00;;;12.10
7389;BMP180;3735;50.136;11.062;2022-07-10T02:33:02;98751.00;;;12.10
7389;BMP180;3735;50.136;11.062;2022-07-10T02:35:28;98754.00;;;12.10
7389;BMP180;3735;50.136;11.062;2022-07-10T02:37:54;98750.00;;;11.90
7389;BMP180;3735;50.136;11.062;2022-07-10T02:40:20;98765.00;;;11.90
7389;BMP180;3735;50.136;11.062;2022-07-10T02:42:45;98761.00;;;11.80
7389;BMP180;3735;50.136;11.062;2022-07-10T02:45:11;98754.00;;;11.80
7389;BMP180;3735;50.136;11.062;2022-07-10T02:47:37;98758.00;;;11.70
7389;BMP180;3735;50.136;11.062;2022-07-10T02:50:03;98761.00;;;11.90
7389;BMP180;3735;50.136;11.062;2022-07-10T02:52:29;98761.00;;;11.90
7389;BMP180;3735;50.136;11.062;2022-07-10T02:54:57;98762.00;;;11.90
7389;BMP180;3735;50.136;11.062;2022-07-10T02:57:23;98756.00;;;11.90
7389;BMP180;3735;50.136;11.062;2022-07-10T02:59:49;98759.00;;;11.90
7389;BMP180;3735;50.136;11.062;2022-07-10T03:02:15;98751.00;;;11.80
7389;BMP180;3735;50.136;11.062;2022-07-10T03:04:41;98746.00;;;11.80
7389;BMP180;3735;50.136;11.062;2022-07-10T03:07:07;98756.00;;;11.70
7389;BMP180;3735;50.136;11.062;2022-07-10T03:09:33;98753.00;;;11.70
7389;BMP180;3735;50.136;11.062;2022-07-10T03:11:59;98753.00;;;11.60
7389;BMP180;3735;50.136;11.062;2022-07-10T03:14:26;98748.00;;;11.70
7389;BMP180;3735;50.136;11.062;2022-07-10T03:16:52;98748.00;;;11.80
7389;BMP180;3735;50.136;11.062;2022-07-10T03:19:17;98747.00;;;11.90
7389;BMP180;3735;50.136;11.062;2022-07-10T03:21:43;98745.00;;;12.00
7389;BMP180;3735;50.136;11.062;2022-07-10T03:24:09;98740.00;;;12.10
7389;BMP180;3735;50.136;11.062;2022-07-10T03:26:35;98740.00;;;12.10
7389;BMP180;3735;50.136;11.062;2022-07-10T03:29:01;98732.00;;;12.20
7389;BMP180;3735;50.136;11.062;2022-07-10T03:31:27;98735.00;;;12.20
7389;BMP180;3735;50.136;11.062;2022-07-10T03:33:52;98734.00;;;12.20
7389;BMP180;3735;50.136;11.062;2022-07-10T03:36:19;98737.00;;;12.30
7389;BMP180;3735;50.136;11.062;2022-07-10T03:38:45;98731.00;;;12.40
7389;BMP180;3735;50.136;11.062;2022-07-10T03:41:15;98737.00;;;12.50
7389;BMP180;3735;50.136;11.062;2022-07-10T03:43:41;98734.00;;;12.50
7389;BMP180;3735;50.136;11.062;2022-07-10T03:46:07;98727.00;;;12.60
7389;BMP180;3735;50.136;11.062;2022-07-10T03:48:33;98722.00;;;12.60
7389;BMP180;3735;50.136;11.062;2022-07-10T03:51:00;98717.00;;;12.70
7389;BMP180;3735;50.136;11.062;2022-07-10T03:53:26;98727.00;;;12.80
7389;BMP180;3735;50.136;11.062;2022-07-10T03:55:52;98727.00;;;12.80
7389;BMP180;3735;50.136;11.062;2022-07-10T03:58:20;98728.00;;;12.90
7389;BMP180;3735;50.136;11.062;2022-07-10T04:00:46;98735.00;;;13.00
7389;BMP180;3735;50.136;11.062;2022-07-10T04:03:12;98744.00;;;13.10
7389;BMP180;3735;50.136;11.062;2022-07-10T04:05:39;98746.00;;;13.10
7389;BMP180;3735;50.136;11.062;2022-07-10T04:08:06;98736.00;;;13.30
7389;BMP180;3735;50.136;11.062;2022-07-10T04:10:32;98732.00;;;13.40
7389;BMP180;3735;50.136;11.062;2022-07-10T04:12:58;98729.00;;;13.40
7389;BMP180;3735;50.136;11.062;2022-07-10T04:15:25;98740.00;;;13.50
7389;BMP180;3735;50.136;11.062;2022-07-10T04:17:51;98735.00;;;13.60
7389;BMP180;3735;50.136;11.062;2022-07-10T04:20:18;98748.00;;;13.70
7389;BMP180;3735;50.136;11.062;2022-07-10T04:22:45;98744.00;;;13.70
7389;BMP180;3735;50.136;11.062;2022-07-10T04:25:12;98735.00;;;13.80
7389;BMP180;3735;50.136;11.062;2022-07-10T04:27:38;98737.00;;;13.80
7389;BMP180;3735;50.136;11.062;2022-07-10T04:30:05;98745.00;;;13.90
7389;BMP180;3735;50.136;11.062;2022-07-10T04:32:31;98741.00;;;14.00
7389;BMP180;3735;50.136;11.062;2022-07-10T04:34:58;98739.00;;;14.00
7389;BMP180;3735;50.136;11.062;2022-07-10T04:37:24;98745.00;;;14.10
7389;BMP180;3735;50.136;11.062;2022-07-10T04:39:50;98744.00;;;14.20
7389;BMP180;3735;50.136;11.062;2022-07-10T04:42:15;98755.00;;;14.10
7389;BMP180;3735;50.136;11.062;2022-07-10T04:44:42;98760.00;;;14.20
7389;BMP180;3735;50.136;11.062;2022-07-10T04:47:08;98764.00;;;14.30
7389;BMP180;3735;50.136;11.062;2022-07-10T04:49:34;98765.00;;;14.30
7389;BMP180;3735;50.136;11.062;2022-07-10T04:52:00;98766.00;;;14.30
7389;BMP180;3735;50.136;11.062;2022-07-10T04:54:26;98762.00;;;14.30
7389;BMP180;3735;50.136;11.062;2022-07-10T04:56:52;98767.00;;;14.40
7389;BMP180;3735;50.136;11.062;2022-07-10T04:59:18;98760.00;;;14.50
7389;BMP180;3735;50.136;11.062;2022-07-10T05:01:44;98758.00;;;14.60
7389;BMP180;3735;50.136;11.062;2022-07-10T05:04:10;98759.00;;;14.60
7389;BMP180;3735;50.136;11.062;2022-07-10T05:06:36;98754.00;;;14.80
7389;BMP180;3735;50.136;11.062;2022-07-10T05:09:03;98768.00;;;14.80
7389;BMP180;3735;50.136;11.062;2022-07-10T05:11:29;98749.00;;;15.00
7389;BMP180;3735;50.136;11.062;2022-07-10T05:13:57;98759.00;;;15.10
7389;BMP180;3735;50.136;11.062;2022-07-10T05:16:23;98745.00;;;15.00
7389;BMP180;3735;50.136;11.062;2022-07-10T05:18:49;98749.00;;;15.00
7389;BMP180;3735;50.136;11.062;2022-07-10T05:21:15;98748.00;;;15.00
7389;BMP180;3735;50.136;11.062;2022-07-10T05:23:41;98752.00;;;15.00
7389;BMP180;3735;50.136;11.062;2022-07-10T05:26:09;98754.00;;;14.90
7389;BMP180;3735;50.136;11.062;2022-07-10T05:28:38;98752.00;;;14.80
7389;BMP180;3735;50.136;11.062;2022-07-10T05:31:04;98749.00;;;14.80
7389;BMP180;3735;50.136;11.062;2022-07-10T05:33:30;98747.00;;;14.70
7389;BMP180;3735;50.136;11.062;2022-07-10T05:35:56;98750.00;;;14.70
7389;BMP180;3735;50.136;11.062;2022-07-10T05:38:22;98750.00;;;14.60
7389;BMP180;3735;50.136;11.062;2022-07-10T05:40:48;98756.00;;;14.70
7389;BMP180;3735;50.136;11.062;2022-07-10T05:43:14;98748.00;;;15.00
7389;BMP180;3735;50.136;11.062;2022-07-10T05:45:40;98759.00;;;15.20
7389;BMP180;3735;50.136;11.062;2022-07-10T05:48:06;98768.00;;;15.70
7389;BMP180;3735;50.136;11.062;2022-07-10T05:50:31;98758.00;;;17.20
7389;BMP180;3735;50.136;11.062;2022-07-10T05:52:58;98760.00;;;17.50
7389;BMP180;3735;50.136;11.062;2022-07-10T05:55:24;98753.00;;;19.10
7389;BMP180;3735;50.136;11.062;2022-07-10T05:57:49;98753.00;;;19.20
7389;BMP180;3735;50.136;11.062;2022-07-10T06:00:16;98762.00;;;19.10
7389;BMP180;3735;50.136;11.062;2022-07-10T06:02:41;98769.00;;;19.00
7389;BMP180;3735;50.136;11.062;2022-07-10T06:05:08;98763.00;;;18.50
7389;BMP180;3735;50.136;11.062;2022-07-10T06:07:34;98776.00;;;17.80
7389;BMP180;3735;50.136;11.062;2022-07-10T06:10:02;98776.00;;;18.00
7389;BMP180;3735;50.136;11.062;2022-07-10T06:12:28;98769.00;;;17.90
7389;BMP180;3735;50.136;11.062;2022-07-10T06:14:54;98768.00;;;17.90
7389;BMP180;3735;50.136;11.062;2022-07-10T06:17:20;98775.00;;;17.30
7389;BMP180;3735;50.136;11.062;2022-07-10T06:19:45;98774.00;;;17.10
7389;BMP180;3735;50.136;11.062;2022-07-10T06:22:11;98779.00;;;16.90
7389;BMP180;3735;50.136;11.062;2022-07-10T06:25:04;98776.00;;;16.80
7389;BMP180;3735;50.136;11.062;2022-07-10T06:27:31;98784.00;;;16.60
7389;BMP180;3735;50.136;11.062;2022-07-10T06:29:57;98805.00;;;16.50
7389;BMP180;3735;50.136;11.062;2022-07-10T06:32:24;98804.00;;;16.30
7389;BMP180;3735;50.136;11.062;2022-07-10T06:34:52;98798.00;;;15.90
7389;BMP180;3735;50.136;11.062;2022-07-10T06:37:20;98804.00;;;15.90
7389;BMP180;3735;50.136;11.062;2022-07-10T06:39:47;98807.00;;;15.90
7389;BMP180;3735;50.136;11.062;2022-07-10T06:42:16;98806.00;;;15.90
7389;BMP180;3735;50.136;11.062;2022-07-10T06:44:43;98801.00;;;16.10
7389;BMP180;3735;50.136;11.062;2022-07-10T06:47:11;98788.00;;;16.70
7389;BMP180;3735;50.136;11.062;2022-07-10T06:49:56;98788.00;;;18.30
7389;BMP180;3735;50.136;11.062;2022-07-10T06:52:23;98793.00;;;20.50
7389;BMP180;3735;50.136;11.062;2022-07-10T06:54:49;98786.00;;;21.20
7389;BMP180;3735;50.136;11.062;2022-07-10T06:57:16;98777.00;;;21.00
7389;BMP180;3735;50.136;11.062;2022-07-10T06:59:44;98778.00;;;20.40
7389;BMP180;3735;50.136;11.062;2022-07-10T07:02:10;98781.00;;;20.20
7389;BMP180;3735;50.136;11.062;2022-07-10T07:04:35;98778.00;;;20.40
7389;BMP180;3735;50.136;11.062;2022-07-10T07:07:03;98783.00;;;20.10
7389;BMP180;3735;50.136;11.062;2022-07-10T07:09:28;98784.00;;;19.90
7389;BMP180;3735;50.136;11.062;2022-07-10T07:11:54;98801.00;;;19.40
7389;BMP180;3735;50.136;11.062;2022-07-10T07:14:20;98798.00;;;18.90
7389;BMP180;3735;50.136;11.062;2022-07-10T07:16:46;98799.00;;;18.20
7389;BMP180;3735;50.136;11.062;2022-07-10T07:19:23;98805.00;;;17.80
7389;BMP180;3735;50.136;11.062;2022-07-10T07:22:00;98812.00;;;17.40
7389;BMP180;3735;50.136;11.062;2022-07-10T07:24:45;98810.00;;;17.20
7389;BMP180;3735;50.136;11.062;2022-07-10T07:27:11;98812.00;;;17.00
7389;BMP180;3735;50.136;11.062;2022-07-10T07:29:38;98811.00;;;17.10
7389;BMP180;3735;50.136;11.062;2022-07-10T07:32:04;98812.00;;;16.80
7389;BMP180;3735;50.136;11.062;2022-07-10T07:34:30;98807.00;;;16.50
7389;BMP180;3735;50.136;11.062;2022-07-10T07:36:59;98807.00;;;16.60
7389;BMP180;3735;50.136;11.062;2022-07-10T07:39:24;98811.00;;;16.80
7389;BMP180;3735;50.136;11.062;2022-07-10T07:41:50;98805.00;;;16.80
7389;BMP180;3735;50.136;11.062;2022-07-10T07:44:16;98815.00;;;17.00
7389;BMP180;3735;50.136;11.062;2022-07-10T07:46:44;98821.00;;;16.80
7389;BMP180;3735;50.136;11.062;2022-07-10T07:49:10;98830.00;;;16.70
7389;BMP180;3735;50.136;11.062;2022-07-10T07:51:36;98827.00;;;16.70
7389;BMP180;3735;50.136;11.062;2022-07-10T07:54:02;98831.00;;;16.40
7389;BMP180;3735;50.136;11.062;2022-07-10T07:56:27;98830.00;;;16.40
7389;BMP180;3735;50.136;11.062;2022-07-10T07:58:53;98835.00;;;16.30
7389;BMP180;3735;50.136;11.062;2022-07-10T08:01:19;98836.00;;;16.30
7389;BMP180;3735;50.136;11.062;2022-07-10T08:03:45;98833.00;;;16.30
7389;BMP180;3735;50.136;11.062;2022-07-10T08:06:11;98836.00;;;16.20
7389;BMP180;3735;50.136;11.062;2022-07-10T08:08:37;98836.00;;;16.10
7389;BMP180;3735;50.136;11.062;2022-07-10T08:11:03;98838.00;;;16.10
7389;BMP180;3735;50.136;11.062;2022-07-10T08:13:29;98835.00;;;16.10
7389;BMP180;3735;50.136;11.062;2022-07-10T08:15:55;98836.00;;;16.10
7389;BMP180;3735;50.136;11.062;2022-07-10T08:18:21;98840.00;;;16.30
7389;BMP180;3735;50.136;11.062;2022-07-10T08:20:46;98835.00;;;16.40
7389;BMP180;3735;50.136;11.062;2022-07-10T08:23:12;98831.00;;;16.50
7389;BMP180;3735;50.136;11.062;2022-07-10T08:25:38;98831.00;;;16.70
7389;BMP180;3735;50.136;11.062;2022-07-10T08:28:04;98826.00;;;17.10
7389;BMP180;3735;50.136;11.062;2022-07-10T08:30:35;98828.00;;;17.20
7389;BMP180;3735;50.136;11.062;2022-07-10T08:33:01;98826.00;;;17.30
7389;BMP180;3735;50.136;11.062;2022-07-10T08:35:27;98817.00;;;17.50
7389;BMP180;3735;50.136;11.062;2022-07-10T08:37:53;98813.00;;;17.60
7389;BMP180;3735;50.136;11.062;2022-07-10T08:40:21;98815.00;;;17.70
7389;BMP180;3735;50.136;11.062;2022-07-10T08:42:48;98819.00;;;17.80
7389;BMP180;3735;50.136;11.062;2022-07-10T08:45:14;98815.00;;;18.20
7389;BMP180;3735;50.136;11.062;2022-07-10T08:47:41;98822.00;;;18.60
7389;BMP180;3735;50.136;11.062;2022-07-10T08:50:18;98819.00;;;18.80
7389;BMP180;3735;50.136;11.062;2022-07-10T08:53:00;98826.00;;;19.00
7389;BMP180;3735;50.136;11.062;2022-07-10T08:55:27;98826.00;;;19.00
7389;BMP180;3735;50.136;11.062;2022-07-10T08:57:54;98821.00;;;18.70
7389;BMP180;3735;50.136;11.062;2022-07-10T09:00:22;98819.00;;;18.90
7389;BMP180;3735;50.136;11.062;2022-07-10T09:02:48;98817.00;;;19.30
7389;BMP180;3735;50.136;11.062;2022-07-10T09:05:14;98819.00;;;19.10
7389;BMP180;3735;50.136;11.062;2022-07-10T09:07:40;98816.00;;;18.70
7389;BMP180;3735;50.136;11.062;2022-07-10T09:10:11;98815.00;;;18.90
7389;BMP180;3735;50.136;11.062;2022-07-10T09:13:01;98819.00;;;18.70
7389;BMP180;3735;50.136;11.062;2022-07-10T09:15:31;98815.00;;;18.60
7389;BMP180;3735;50.136;11.062;2022-07-10T09:18:01;98823.00;;;18.80
7389;BMP180;3735;50.136;11.062;2022-07-10T09:20:34;98818.00;;;18.80
7389;BMP180;3735;50.136;11.062;2022-07-10T09:23:17;98822.00;;;18.40
7389;BMP180;3735;50.136;11.062;2022-07-10T09:25:45;98818.00;;;18.60
7389;BMP180;3735;50.136;11.062;2022-07-10T09:28:16;98827.00;;;18.40
7389;BMP180;3735;50.136;11.062;2022-07-10T09:30:43;98826.00;;;18.80
7389;BMP180;3735;50.136;11.062;2022-07-10T09:33:30;98825.00;;;19.00
7389;BMP180;3735;50.136;11.062;2022-07-10T09:36:10;98821.00;;;18.90
7389;BMP180;3735;50.136;11.062;2022-07-10T09:41:23;98818.00;;;18.90
7389;BMP180;3735;50.136;11.062;2022-07-10T09:44:02;98821.00;;;19.10
7389;BMP180;3735;50.136;11.062;2022-07-10T09:46:37;98826.00;;;19.20
7389;BMP180;3735;50.136;11.062;2022-07-10T09:49:28;98828.00;;;19.20
7389;BMP180;3735;50.136;11.062;2022-07-10T09:51:56;98832.00;;;19.50
7389;BMP180;3735;50.136;11.062;2022-07-10T09:54:22;98827.00;;;19.80
7389;BMP180;3735;50.136;11.062;2022-07-10T09:56:50;98826.00;;;19.30
7389;BMP180;3735;50.136;11.062;2022-07-10T09:59:20;98830.00;;;19.10
7389;BMP180;3735;50.136;11.062;2022-07-10T10:01:51;98834.00;;;18.70
7389;BMP180;3735;50.136;11.062;2022-07-10T10:04:20;98839.00;;;18.30
7389;BMP180;3735;50.136;11.062;2022-07-10T10:07:00;98833.00;;;18.30
7389;BMP180;3735;50.136;11.062;2022-07-10T10:09:38;98824.00;;;18.60
7389;BMP180;3735;50.136;11.062;2022-07-10T10:12:13;98819.00;;;19.60
7389;BMP180;3735;50.136;11.062;2022-07-10T10:14:41;98826.00;;;20.50
7389;BMP180;3735;50.136;11.062;2022-07-10T10:17:11;98818.00;;;21.20
7389;BMP180;3735;50.136;11.062;2022-07-10T10:19:40;98805.00;;;21.70
7389;BMP180;3735;50.136;11.062;2022-07-10T10:22:25;98814.00;;;21.90
7389;BMP180;3735;50.136;11.062;2022-07-10T10:24:53;98814.00;;;21.80
7389;BMP180;3735;50.136;11.062;2022-07-10T10:27:21;98821.00;;;21.50
7389;BMP180;3735;50.136;11.062;2022-07-10T10:29:48;98812.00;;;21.60
7389;BMP180;3735;50.136;11.062;2022-07-10T10:32:15;98810.00;;;22.30
7389;BMP180;3735;50.136;11.062;2022-07-10T10:34:44;98798.00;;;23.70
7389;BMP180;3735;50.136;11.062;2022-07-10T10:37:38;98799.00;;;24.90
7389;BMP180;3735;50.136;11.062;2022-07-10T10:40:09;98796.00;;;25.00
7389;BMP180;3735;50.136;11.062;2022-07-10T10:42:37;98810.00;;;24.80
7389;BMP180;3735;50.136;11.062;2022-07-10T10:47:59;98803.00;;;24.20
7389;BMP180;3735;50.136;11.062;2022-07-10T10:50:48;98804.00;;;24.00
7389;BMP180;3735;50.136;11.062;2022-07-10T10:53:33;98804.00;;;23.70
7389;BMP180;3735;50.136;11.062;2022-07-10T10:58:45;98807.00;;;22.80
7389;BMP180;3735;50.136;11.062;2022-07-10T11:06:52;98833.00;;;20.50
7389;BMP180;3735;50.136;11.062;2022-07-10T11:09:32;98824.00;;;20.20
7389;BMP180;3735;50.136;11.062;2022-07-10T11:12:08;98821.00;;;19.90
7389;BMP180;3735;50.136;11.062;2022-07-10T11:14:54;98817.00;;;20.00
7389;BMP180;3735;50.136;11.062;2022-07-10T11:17:27;98819.00;;;20.80
7389;BMP180;3735;50.136;11.062;2022-07-10T11:19:53;98814.00;;;21.10
7389;BMP180;3735;50.136;11.062;2022-07-10T11:25:37;98812.00;;;22.20
7389;BMP180;3735;50.136;11.062;2022-07-10T11:28:10;98815.00;;;22.10
7389;BMP180;3735;50.136;11.062;2022-07-10T11:30:51;98806.00;;;21.80
7389;BMP180;3735;50.136;11.062;2022-07-10T11:33:18;98816.00;;;21.20
7389;BMP180;3735;50.136;11.062;2022-07-10T11:35:52;98819.00;;;20.60
7389;BMP180;3735;50.136;11.062;2022-07-10T11:38:26;98824.00;;;20.30
7389;BMP180;3735;50.136;11.062;2022-07-10T11:40:52;98828.00;;;19.20
7389;BMP180;3735;50.136;11.062;2022-07-10T11:43:21;98832.00;;;18.70
7389;BMP180;3735;50.136;11.062;2022-07-10T11:45:50;98823.00;;;18.30
7389;BMP180;3735;50.136;11.062;2022-07-10T11:48:18;98826.00;;;18.40
7389;BMP180;3735;50.136;11.062;2022-07-10T11:50:44;98814.00;;;18.60
7389;BMP180;3735;50.136;11.062;2022-07-10T11:53:10;98800.00;;;19.00
7389;BMP180;3735;50.136;11.062;2022-07-10T11:55:37;98800.00;;;19.90
7389;BMP180;3735;50.136;11.062;2022-07-10T11:58:19;98784.00;;;21.20
7389;BMP180;3735;50.136;11.062;2022-07-10T12:01:02;98781.00;;;23.20
7389;BMP180;3735;50.136;11.062;2022-07-10T12:03:31;98782.00;;;24.40
7389;BMP180;3735;50.136;11.062;2022-07-10T12:06:03;98771.00;;;24.60
7389;BMP180;3735;50.136;11.062;2022-07-10T12:08:29;98772.00;;;25.70
7389;BMP180;3735;50.136;11.062;2022-07-10T12:10:55;98770.00;;;25.50
7389;BMP180;3735;50.136;11.062;2022-07-10T12:13:21;98773.00;;;25.80
7389;BMP180;3735;50.136;11.062;2022-07-10T12:15:47;98775.00;;;25.40
7389;BMP180;3735;50.136;11.062;2022-07-10T12:18:21;98778.00;;;24.50
7389;BMP180;3735;50.136;11.062;2022-07-10T12:20:49;98778.00;;;24.80
7389;BMP180;3735;50.136;11.062;2022-07-10T12:23:17;98771.00;;;24.00
7389;BMP180;3735;50.136;11.062;2022-07-10T12:25:46;98784.00;;;23.20
7389;BMP180;3735;50.136;11.062;2022-07-10T12:28:14;98781.00;;;23.10
7389;BMP180;3735;50.136;11.062;2022-07-10T12:30:43;98785.00;;;23.10
7389;BMP180;3735;50.136;11.062;2022-07-10T12:33:12;98795.00;;;22.30
7389;BMP180;3735;50.136;11.062;2022-07-10T12:35:55;98791.00;;;21.50
7389;BMP180;3735;50.136;11.062;2022-07-10T12:38:27;98808.00;;;21.00
7389;BMP180;3735;50.136;11.062;2022-07-10T12:41:12;98797.00;;;20.40
7389;BMP180;3735;50.136;11.062;2022-07-10T12:43:40;98799.00;;;20.50
7389;BMP180;3735;50.136;11.062;2022-07-10T12:46:20;98787.00;;;20.60
7389;BMP180;3735;50.136;11.062;2022-07-10T12:49:09;98787.00;;;21.20
7389;BMP180;3735;50.136;11.062;2022-07-10T12:51:47;98794.00;;;21.60
7389;BMP180;3735;50.136;11.062;2022-07-10T12:54:33;98791.00;;;21.60
7389;BMP180;3735;50.136;11.062;2022-07-10T12:57:00;98784.00;;;21.80
7389;BMP180;3735;50.136;11.062;2022-07-10T12:59:28;98773.00;;;21.30
7389;BMP180;3735;50.136;11.062;2022-07-10T13:01:55;98782.00;;;21.70
7389;BMP180;3735;50.136;11.062;2022-07-10T13:04:27;98775.00;;;22.30
7389;BMP180;3735;50.136;11.062;2022-07-10T13:06:53;98775.00;;;24.00
7389;BMP180;3735;50.136;11.062;2022-07-10T13:09:25;98769.00;;;24.70
7389;BMP180;3735;50.136;11.062;2022-07-10T13:11:53;98772.00;;;24.50
7389;BMP180;3735;50.136;11.062;2022-07-10T13:14:20;98759.00;;;25.20
7389;BMP180;3735;50.136;11.062;2022-07-10T13:16:47;98761.00;;;25.00
7389;BMP180;3735;50.136;11.062;2022-07-10T13:19:13;98765.00;;;24.90
7389;BMP180;3735;50.136;11.062;2022-07-10T13:21:39;98769.00;;;24.90
7389;BMP180;3735;50.136;11.062;2022-07-10T13:24:05;98769.00;;;24.70
7389;BMP180;3735;50.136;11.062;2022-07-10T13:26:32;98777.00;;;24.30
7389;BMP180;3735;50.136;11.062;2022-07-10T13:28:58;98782.00;;;23.80
7389;BMP180;3735;50.136;11.062;2022-07-10T13:31:25;98778.00;;;23.40
7389;BMP180;3735;50.136;11.062;2022-07-10T13:33:51;98775.00;;;23.40
7389;BMP180;3735;50.136;11.062;2022-07-10T13:36:17;98774.00;;;23.30
7389;BMP180;3735;50.136;11.062;2022-07-10T13:38:43;98768.00;;;23.60
7389;BMP180;3735;50.136;11.062;2022-07-10T13:41:09;98773.00;;;23.30
7389;BMP180;3735;50.136;11.062;2022-07-10T13:43:35;98774.00;;;23.40
7389;BMP180;3735;50.136;11.062;2022-07-10T13:46:01;98775.00;;;23.80
7389;BMP180;3735;50.136;11.062;2022-07-10T13:48:29;98764.00;;;24.50
7389;BMP180;3735;50.136;11.062;2022-07-10T13:50:55;98761.00;;;25.40
7389;BMP180;3735;50.136;11.062;2022-07-10T13:53:20;98758.00;;;26.00
7389;BMP180;3735;50.136;11.062;2022-07-10T13:55:47;98760.00;;;25.70
7389;BMP180;3735;50.136;11.062;2022-07-10T13:58:15;98759.00;;;25.10
7389;BMP180;3735;50.136;11.062;2022-07-10T14:00:41;98758.00;;;25.00
7389;BMP180;3735;50.136;11.062;2022-07-10T14:03:07;98755.00;;;25.20
7389;BMP180;3735;50.136;11.062;2022-07-10T14:05:33;98759.00;;;25.50
7389;BMP180;3735;50.136;11.062;2022-07-10T14:08:00;98753.00;;;26.80
7389;BMP180;3735;50.136;11.062;2022-07-10T14:10:27;98762.00;;;27.00
7389;BMP180;3735;50.136;11.062;2022-07-10T14:12:53;98761.00;;;26.20
7389;BMP180;3735;50.136;11.062;2022-07-10T14:15:19;98759.00;;;26.30
7389;BMP180;3735;50.136;11.062;2022-07-10T14:17:45;98757.00;;;25.30
7389;BMP180;3735;50.136;11.062;2022-07-10T14:20:11;98752.00;;;25.50
7389;BMP180;3735;50.136;11.062;2022-07-10T14:22:38;98748.00;;;26.40
7389;BMP180;3735;50.136;11.062;2022-07-10T14:25:06;98752.00;;;27.50
7389;BMP180;3735;50.136;11.062;2022-07-10T14:27:34;98745.00;;;27.40
7389;BMP180;3735;50.136;11.062;2022-07-10T14:30:00;98758.00;;;27.10
7389;BMP180;3735;50.136;11.062;2022-07-10T14:32:26;98751.00;;;26.40
7389;BMP180;3735;50.136;11.062;2022-07-10T14:34:52;98749.00;;;27.40
7389;BMP180;3735;50.136;11.062;2022-07-10T14:37:17;98754.00;;;27.10
7389;BMP180;3735;50.136;11.062;2022-07-10T14:39:44;98751.00;;;26.70
7389;BMP180;3735;50.136;11.062;2022-07-10T14:42:11;98754.00;;;26.50
7389;BMP180;3735;50.136;11.062;2022-07-10T14:44:38;98760.00;;;25.90